sensor_id;sensor_type;location;lat;lon;timestamp;P1;durP1;ratioP1;P2;durP2;ratioP2
81960;SDS011;71462;50.650;6.888;2023-07-16T00:00:16;3.47;;;1.90;;
81960;SDS011;71462;50.650;6.888;2023-07-16T00:02:21;5.35;;;2.10;;
81960;SDS011;71462;50.650;6.888;2023-07-16T00:04:23;4.68;;;1.75;;
81960;SDS011;71462;50.650;6.888;2023-07-16T00:06:26;4.30;;;2.00;;
81960;SDS011;71462;50.650;6.888;2023-07-16T00:08:29;4.75;;;2.20;;
81960;SDS011;71462;50.650;6.888;2023-07-16T00:10:33;4.30;;;1.85;;
81960;SDS011;71462;50.650;6.888;2023-07-16T00:12:37;3.30;;;1.98;;
81960;SDS011;71462;50.650;6.888;2023-07-16T00:14:40;5.28;;;2.30;;
81960;SDS011;71462;50.650;6.888;2023-07-16T00:16:43;7.32;;;2.40;;
81960;SDS011;71462;50.650;6.888;2023-07-16T00:18:46;6.70;;;2.30;;
81960;SDS011;71462;50.650;6.888;2023-07-16T00:20:49;4.43;;;1.88;;
81960;SDS011;71462;50.650;6.888;2023-07-16T00:22:51;6.30;;;1.85;;
81960;SDS011;71462;50.650;6.888;2023-07-16T00:24:54;6.75;;;1.90;;
81960;SDS011;71462;50.650;6.888;2023-07-16T00:26:57;8.52;;;2.28;;
81960;SDS011;71462;50.650;6.888;2023-07-16T00:29:01;5.45;;;2.17;;
81960;SDS011;71462;50.650;6.888;2023-07-16T00:31:07;5.05;;;1.90;;
81960;SDS011;71462;50.650;6.888;2023-07-16T00:33:10;6.07;;;2.17;;
81960;SDS011;71462;50.650;6.888;2023-07-16T00:35:13;5.07;;;1.90;;
81960;SDS011;71462;50.650;6.888;2023-07-16T00:37:16;4.53;;;1.90;;
81960;SDS011;71462;50.650;6.888;2023-07-16T00:39:19;4.00;;;1.98;;
81960;SDS011;71462;50.650;6.888;2023-07-16T00:41:21;5.82;;;1.92;;
81960;SDS011;71462;50.650;6.888;2023-07-16T00:43:24;5.22;;;2.03;;
81960;SDS011;71462;50.650;6.888;2023-07-16T00:45:28;5.80;;;1.77;;
81960;SDS011;71462;50.650;6.888;2023-07-16T00:47:31;5.28;;;2.13;;
81960;SDS011;71462;50.650;6.888;2023-07-16T00:49:33;4.70;;;2.10;;
81960;SDS011;71462;50.650;6.888;2023-07-16T00:51:36;6.05;;;2.08;;
81960;SDS011;71462;50.650;6.888;2023-07-16T00:53:39;5.50;;;2.08;;
81960;SDS011;71462;50.650;6.888;2023-07-16T00:55:47;4.97;;;1.90;;
81960;SDS011;71462;50.650;6.888;2023-07-16T00:57:49;7.85;;;2.00;;
81960;SDS011;71462;50.650;6.888;2023-07-16T00:59:52;5.93;;;2.05;;
81960;SDS011;71462;50.650;6.888;2023-07-16T01:01:56;5.70;;;2.08;;
81960;SDS011;71462;50.650;6.888;2023-07-16T01:03:59;6.72;;;2.00;;
81960;SDS011;71462;50.650;6.888;2023-07-16T01:06:03;4.93;;;2.17;;
81960;SDS011;71462;50.650;6.888;2023-07-16T01:08:12;6.85;;;2.08;;
81960;SDS011;71462;50.650;6.888;2023-07-16T01:10:18;5.40;;;2.10;;
81960;SDS011;71462;50.650;6.888;2023-07-16T01:12:22;7.22;;;2.15;;
81960;SDS011;71462;50.650;6.888;2023-07-16T01:14:24;5.13;;;1.92;;
81960;SDS011;71462;50.650;6.888;2023-07-16T01:16:27;5.78;;;1.98;;
81960;SDS011;71462;50.650;6.888;2023-07-16T01:18:31;6.65;;;1.98;;
81960;SDS011;71462;50.650;6.888;2023-07-16T01:20:33;6.28;;;2.08;;
81960;SDS011;71462;50.650;6.888;2023-07-16T01:22:48;5.15;;;1.77;;
81960;SDS011;71462;50.650;6.888;2023-07-16T01:25:10;4.32;;;2.10;;
81960;SDS011;71462;50.650;6.888;2023-07-16T01:27:46;5.82;;;1.90;;
81960;SDS011;71462;50.650;6.888;2023-07-16T01:30:03;4.97;;;1.92;;
81960;SDS011;71462;50.650;6.888;2023-07-16T01:32:09;7.97;;;2.17;;
81960;SDS011;71462;50.650;6.888;2023-07-16T01:34:14;7.63;;;2.15;;
81960;SDS011;71462;50.650;6.888;2023-07-16T01:36:16;5.05;;;2.10;;
81960;SDS011;71462;50.650;6.888;2023-07-16T01:38:20;5.97;;;2.13;;
81960;SDS011;71462;50.650;6.888;2023-07-16T01:40:24;4.38;;;2.00;;
81960;SDS011;71462;50.650;6.888;2023-07-16T01:42:27;5.88;;;2.22;;
81960;SDS011;71462;50.650;6.888;2023-07-16T01:44:30;6.40;;;2.13;;
81960;SDS011;71462;50.650;6.888;2023-07-16T01:46:34;5.10;;;2.05;;
81960;SDS011;71462;50.650;6.888;2023-07-16T01:48:36;7.47;;;2.08;;
81960;SDS011;71462;50.650;6.888;2023-07-16T01:50:40;7.20;;;2.10;;
81960;SDS011;71462;50.650;6.888;2023-07-16T01:52:42;3.78;;;1.58;;
81960;SDS011;71462;50.650;6.888;2023-07-16T01:54:44;4.95;;;1.88;;
81960;SDS011;71462;50.650;6.888;2023-07-16T01:56:47;7.00;;;2.15;;
81960;SDS011;71462;50.650;6.888;2023-07-16T01:58:49;7.45;;;2.10;;
81960;SDS011;71462;50.650;6.888;2023-07-16T02:00:55;8.63;;;2.72;;
81960;SDS011;71462;50.650;6.888;2023-07-16T02:02:59;6.90;;;2.00;;
81960;SDS011;71462;50.650;6.888;2023-07-16T02:05:02;5.05;;;2.15;;
81960;SDS011;71462;50.650;6.888;2023-07-16T02:07:06;5.05;;;1.95;;
81960;SDS011;71462;50.650;6.888;2023-07-16T02:09:09;4.35;;;1.90;;
81960;SDS011;71462;50.650;6.888;2023-07-16T02:11:12;5.25;;;2.05;;
81960;SDS011;71462;50.650;6.888;2023-07-16T02:13:15;6.47;;;2.13;;
81960;SDS011;71462;50.650;6.888;2023-07-16T02:15:18;6.80;;;1.95;;
81960;SDS011;71462;50.650;6.888;2023-07-16T02:17:21;5.00;;;2.10;;
81960;SDS011;71462;50.650;6.888;2023-07-16T02:19:24;7.80;;;2.00;;
81960;SDS011;71462;50.650;6.888;2023-07-16T02:21:27;7.38;;;2.28;;
81960;SDS011;71462;50.650;6.888;2023-07-16T02:23:30;5.78;;;2.25;;
81960;SDS011;71462;50.650;6.888;2023-07-16T02:25:32;4.43;;;1.80;;
81960;SDS011;71462;50.650;6.888;2023-07-16T02:27:35;9.20;;;2.10;;
81960;SDS011;71462;50.650;6.888;2023-07-16T02:29:38;5.53;;;2.15;;
81960;SDS011;71462;50.650;6.888;2023-07-16T02:31:39;6.75;;;1.90;;
81960;SDS011;71462;50.650;6.888;2023-07-16T02:33:44;4.75;;;1.73;;
81960;SDS011;71462;50.650;6.888;2023-07-16T02:35:48;5.30;;;2.22;;
81960;SDS011;71462;50.650;6.888;2023-07-16T02:37:53;5.22;;;1.95;;
81960;SDS011;71462;50.650;6.888;2023-07-16T02:39:56;4.70;;;1.70;;
81960;SDS011;71462;50.650;6.888;2023-07-16T02:41:57;6.63;;;1.98;;
81960;SDS011;71462;50.650;6.888;2023-07-16T02:44:00;9.60;;;2.42;;
81960;SDS011;71462;50.650;6.888;2023-07-16T02:46:03;5.00;;;2.03;;
81960;SDS011;71462;50.650;6.888;2023-07-16T02:48:07;7.43;;;2.10;;
81960;SDS011;71462;50.650;6.888;2023-07-16T02:50:10;8.50;;;2.55;;
81960;SDS011;71462;50.650;6.888;2023-07-16T02:52:14;6.00;;;2.20;;
81960;SDS011;71462;50.650;6.888;2023-07-16T02:54:17;9.27;;;2.13;;
81960;SDS011;71462;50.650;6.888;2023-07-16T02:56:19;8.88;;;1.83;;
81960;SDS011;71462;50.650;6.888;2023-07-16T02:58:22;6.90;;;2.22;;
81960;SDS011;71462;50.650;6.888;2023-07-16T03:00:24;6.20;;;2.05;;
81960;SDS011;71462;50.650;6.888;2023-07-16T03:02:27;6.00;;;1.92;;
81960;SDS011;71462;50.650;6.888;2023-07-16T03:04:30;6.72;;;2.40;;
81960;SDS011;71462;50.650;6.888;2023-07-16T03:06:32;6.78;;;1.90;;
81960;SDS011;71462;50.650;6.888;2023-07-16T03:08:37;6.97;;;2.13;;
81960;SDS011;71462;50.650;6.888;2023-07-16T03:10:42;5.25;;;2.05;;
81960;SDS011;71462;50.650;6.888;2023-07-16T03:12:45;5.53;;;2.42;;
81960;SDS011;71462;50.650;6.888;2023-07-16T03:14:49;6.88;;;2.08;;
81960;SDS011;71462;50.650;6.888;2023-07-16T03:16:57;6.00;;;2.10;;
81960;SDS011;71462;50.650;6.888;2023-07-16T03:19:00;4.57;;;1.98;;
81960;SDS011;71462;50.650;6.888;2023-07-16T03:21:04;5.45;;;2.00;;
81960;SDS011;71462;50.650;6.888;2023-07-16T03:23:07;7.10;;;2.13;;
81960;SDS011;71462;50.650;6.888;2023-07-16T03:25:11;5.15;;;2.08;;
81960;SDS011;71462;50.650;6.888;2023-07-16T03:27:14;6.38;;;2.55;;
81960;SDS011;71462;50.650;6.888;2023-07-16T03:29:19;6.32;;;1.95;;
81960;SDS011;71462;50.650;6.888;2023-07-16T03:31:22;5.97;;;1.90;;
81960;SDS011;71462;50.650;6.888;2023-07-16T03:33:25;5.18;;;2.17;;
81960;SDS011;71462;50.650;6.888;2023-07-16T03:35:27;7.45;;;2.10;;
81960;SDS011;71462;50.650;6.888;2023-07-16T03:37:30;5.75;;;1.83;;
81960;SDS011;71462;50.650;6.888;2023-07-16T03:39:33;6.90;;;1.95;;
81960;SDS011;71462;50.650;6.888;2023-07-16T03:41:37;5.75;;;2.00;;
81960;SDS011;71462;50.650;6.888;2023-07-16T03:43:39;4.15;;;1.85;;
81960;SDS011;71462;50.650;6.888;2023-07-16T03:45:42;6.40;;;1.90;;
81960;SDS011;71462;50.650;6.888;2023-07-16T03:47:45;6.28;;;2.22;;
81960;SDS011;71462;50.650;6.888;2023-07-16T03:49:48;6.47;;;1.80;;
81960;SDS011;71462;50.650;6.888;2023-07-16T03:51:50;5.35;;;1.90;;
81960;SDS011;71462;50.650;6.888;2023-07-16T03:53:53;7.57;;;2.00;;
81960;SDS011;71462;50.650;6.888;2023-07-16T03:55:55;7.55;;;2.25;;
81960;SDS011;71462;50.650;6.888;2023-07-16T03:57:59;5.20;;;1.98;;
81960;SDS011;71462;50.650;6.888;2023-07-16T04:00:02;7.03;;;2.53;;
81960;SDS011;71462;50.650;6.888;2023-07-16T04:02:07;9.98;;;2.60;;
81960;SDS011;71462;50.650;6.888;2023-07-16T04:04:10;7.22;;;2.20;;
81960;SDS011;71462;50.650;6.888;2023-07-16T04:06:13;5.53;;;2.00;;
81960;SDS011;71462;50.650;6.888;2023-07-16T04:08:16;5.50;;;2.08;;
81960;SDS011;71462;50.650;6.888;2023-07-16T04:10:19;8.75;;;2.83;;
81960;SDS011;71462;50.650;6.888;2023-07-16T04:12:22;8.98;;;2.50;;
81960;SDS011;71462;50.650;6.888;2023-07-16T04:14:27;11.10;;;2.50;;
81960;SDS011;71462;50.650;6.888;2023-07-16T04:16:34;8.60;;;2.20;;
81960;SDS011;71462;50.650;6.888;2023-07-16T04:18:39;6.88;;;2.42;;
81960;SDS011;71462;50.650;6.888;2023-07-16T04:20:46;10.77;;;3.00;;
81960;SDS011;71462;50.650;6.888;2023-07-16T04:22:49;7.70;;;2.72;;
81960;SDS011;71462;50.650;6.888;2023-07-16T04:24:52;8.27;;;2.28;;
81960;SDS011;71462;50.650;6.888;2023-07-16T04:26:55;6.53;;;2.22;;
81960;SDS011;71462;50.650;6.888;2023-07-16T04:28:58;6.18;;;2.45;;
81960;SDS011;71462;50.650;6.888;2023-07-16T04:31:02;7.05;;;2.63;;
81960;SDS011;71462;50.650;6.888;2023-07-16T04:33:05;7.63;;;3.08;;
81960;SDS011;71462;50.650;6.888;2023-07-16T04:35:08;9.45;;;2.28;;
81960;SDS011;71462;50.650;6.888;2023-07-16T04:37:13;7.53;;;2.72;;
81960;SDS011;71462;50.650;6.888;2023-07-16T04:39:16;6.20;;;2.40;;
81960;SDS011;71462;50.650;6.888;2023-07-16T04:41:20;9.10;;;2.92;;
81960;SDS011;71462;50.650;6.888;2023-07-16T04:43:25;7.80;;;2.20;;
81960;SDS011;71462;50.650;6.888;2023-07-16T04:45:28;9.82;;;2.70;;
81960;SDS011;71462;50.650;6.888;2023-07-16T04:47:32;10.55;;;2.85;;
81960;SDS011;71462;50.650;6.888;2023-07-16T04:49:36;5.78;;;2.22;;
81960;SDS011;71462;50.650;6.888;2023-07-16T04:51:39;6.05;;;3.03;;
81960;SDS011;71462;50.650;6.888;2023-07-16T04:53:41;10.55;;;3.10;;
81960;SDS011;71462;50.650;6.888;2023-07-16T04:55:44;8.13;;;2.75;;
81960;SDS011;71462;50.650;6.888;2023-07-16T04:57:47;8.07;;;3.03;;
81960;SDS011;71462;50.650;6.888;2023-07-16T04:59:50;9.18;;;2.85;;
81960;SDS011;71462;50.650;6.888;2023-07-16T05:01:53;9.73;;;3.05;;
81960;SDS011;71462;50.650;6.888;2023-07-16T05:03:58;8.48;;;3.05;;
81960;SDS011;71462;50.650;6.888;2023-07-16T05:06:03;7.53;;;2.70;;
81960;SDS011;71462;50.650;6.888;2023-07-16T05:08:08;7.13;;;2.63;;
81960;SDS011;71462;50.650;6.888;2023-07-16T05:10:14;8.43;;;3.10;;
81960;SDS011;71462;50.650;6.888;2023-07-16T05:12:16;7.82;;;2.97;;
81960;SDS011;71462;50.650;6.888;2023-07-16T05:14:19;10.73;;;3.25;;
81960;SDS011;71462;50.650;6.888;2023-07-16T05:16:22;6.20;;;3.00;;
81960;SDS011;71462;50.650;6.888;2023-07-16T05:18:25;13.43;;;3.85;;
81960;SDS011;71462;50.650;6.888;2023-07-16T05:20:30;11.65;;;3.78;;
81960;SDS011;71462;50.650;6.888;2023-07-16T05:22:36;13.07;;;3.15;;
81960;SDS011;71462;50.650;6.888;2023-07-16T05:24:39;10.88;;;4.18;;
81960;SDS011;71462;50.650;6.888;2023-07-16T05:26:43;8.02;;;3.33;;
81960;SDS011;71462;50.650;6.888;2023-07-16T05:28:47;11.90;;;3.33;;
81960;SDS011;71462;50.650;6.888;2023-07-16T05:30:57;8.93;;;3.20;;
81960;SDS011;71462;50.650;6.888;2023-07-16T05:33:00;9.07;;;3.38;;
81960;SDS011;71462;50.650;6.888;2023-07-16T05:35:08;9.02;;;3.20;;
81960;SDS011;71462;50.650;6.888;2023-07-16T05:37:13;9.50;;;3.55;;
81960;SDS011;71462;50.650;6.888;2023-07-16T05:39:16;12.00;;;4.90;;
81960;SDS011;71462;50.650;6.888;2023-07-16T05:41:19;10.35;;;4.00;;
81960;SDS011;71462;50.650;6.888;2023-07-16T05:43:24;14.88;;;4.07;;
81960;SDS011;71462;50.650;6.888;2023-07-16T05:45:30;9.43;;;3.08;;
81960;SDS011;71462;50.650;6.888;2023-07-16T05:47:34;9.43;;;3.42;;
81960;SDS011;71462;50.650;6.888;2023-07-16T05:49:37;12.40;;;3.83;;
81960;SDS011;71462;50.650;6.888;2023-07-16T05:51:39;9.80;;;3.63;;
81960;SDS011;71462;50.650;6.888;2023-07-16T05:53:46;7.00;;;3.40;;
81960;SDS011;71462;50.650;6.888;2023-07-16T05:55:50;11.23;;;3.88;;
81960;SDS011;71462;50.650;6.888;2023-07-16T05:57:56;9.60;;;3.10;;
81960;SDS011;71462;50.650;6.888;2023-07-16T05:59:58;8.40;;;3.47;;
81960;SDS011;71462;50.650;6.888;2023-07-16T06:02:01;9.60;;;3.08;;
81960;SDS011;71462;50.650;6.888;2023-07-16T06:04:03;13.85;;;4.53;;
81960;SDS011;71462;50.650;6.888;2023-07-16T06:06:08;9.52;;;4.70;;
81960;SDS011;71462;50.650;6.888;2023-07-16T06:08:11;7.72;;;3.20;;
81960;SDS011;71462;50.650;6.888;2023-07-16T06:10:15;11.02;;;3.92;;
81960;SDS011;71462;50.650;6.888;2023-07-16T06:12:18;7.60;;;3.25;;
81960;SDS011;71462;50.650;6.888;2023-07-16T06:14:21;11.57;;;4.03;;
81960;SDS011;71462;50.650;6.888;2023-07-16T06:16:25;9.15;;;3.97;;
81960;SDS011;71462;50.650;6.888;2023-07-16T06:18:28;10.20;;;3.78;;
81960;SDS011;71462;50.650;6.888;2023-07-16T06:20:30;12.82;;;4.35;;
81960;SDS011;71462;50.650;6.888;2023-07-16T06:22:33;11.50;;;4.43;;
81960;SDS011;71462;50.650;6.888;2023-07-16T06:24:36;12.10;;;3.97;;
81960;SDS011;71462;50.650;6.888;2023-07-16T06:26:41;8.95;;;3.70;;
81960;SDS011;71462;50.650;6.888;2023-07-16T06:28:43;6.97;;;3.00;;
81960;SDS011;71462;50.650;6.888;2023-07-16T06:30:50;8.23;;;3.30;;
81960;SDS011;71462;50.650;6.888;2023-07-16T06:32:54;9.02;;;3.75;;
81960;SDS011;71462;50.650;6.888;2023-07-16T06:34:57;10.52;;;4.45;;
81960;SDS011;71462;50.650;6.888;2023-07-16T06:36:59;10.05;;;4.72;;
81960;SDS011;71462;50.650;6.888;2023-07-16T06:39:02;10.07;;;3.75;;
81960;SDS011;71462;50.650;6.888;2023-07-16T06:41:06;11.45;;;4.20;;
81960;SDS011;71462;50.650;6.888;2023-07-16T06:43:09;9.88;;;3.55;;
81960;SDS011;71462;50.650;6.888;2023-07-16T06:45:11;10.25;;;5.10;;
81960;SDS011;71462;50.650;6.888;2023-07-16T06:47:15;8.38;;;4.05;;
81960;SDS011;71462;50.650;6.888;2023-07-16T06:49:21;11.02;;;4.30;;
81960;SDS011;71462;50.650;6.888;2023-07-16T06:51:24;9.18;;;3.63;;
81960;SDS011;71462;50.650;6.888;2023-07-16T06:53:27;10.38;;;4.47;;
81960;SDS011;71462;50.650;6.888;2023-07-16T06:55:29;8.05;;;4.00;;
81960;SDS011;71462;50.650;6.888;2023-07-16T06:57:32;10.43;;;4.10;;
81960;SDS011;71462;50.650;6.888;2023-07-16T06:59:36;10.35;;;4.35;;
81960;SDS011;71462;50.650;6.888;2023-07-16T07:01:39;8.13;;;4.53;;
81960;SDS011;71462;50.650;6.888;2023-07-16T07:03:41;10.45;;;4.40;;
81960;SDS011;71462;50.650;6.888;2023-07-16T07:05:43;8.77;;;4.15;;
81960;SDS011;71462;50.650;6.888;2023-07-16T07:07:46;8.55;;;4.13;;
81960;SDS011;71462;50.650;6.888;2023-07-16T07:09:49;10.80;;;4.32;;
81960;SDS011;71462;50.650;6.888;2023-07-16T07:11:51;11.32;;;4.97;;
81960;SDS011;71462;50.650;6.888;2023-07-16T07:13:54;10.57;;;5.00;;
81960;SDS011;71462;50.650;6.888;2023-07-16T07:15:59;10.77;;;4.30;;
81960;SDS011;71462;50.650;6.888;2023-07-16T07:18:02;13.60;;;4.50;;
81960;SDS011;71462;50.650;6.888;2023-07-16T07:20:05;8.25;;;4.47;;
81960;SDS011;71462;50.650;6.888;2023-07-16T07:22:09;9.73;;;4.97;;
81960;SDS011;71462;50.650;6.888;2023-07-16T07:24:12;12.82;;;4.85;;
81960;SDS011;71462;50.650;6.888;2023-07-16T07:26:15;9.90;;;5.03;;
81960;SDS011;71462;50.650;6.888;2023-07-16T07:28:18;8.15;;;4.45;;
81960;SDS011;71462;50.650;6.888;2023-07-16T07:30:21;10.05;;;4.70;;
81960;SDS011;71462;50.650;6.888;2023-07-16T07:32:25;14.23;;;5.40;;
81960;SDS011;71462;50.650;6.888;2023-07-16T07:34:28;10.32;;;4.55;;
81960;SDS011;71462;50.650;6.888;2023-07-16T07:36:31;10.02;;;4.53;;
81960;SDS011;71462;50.650;6.888;2023-07-16T07:38:33;10.68;;;4.63;;
81960;SDS011;71462;50.650;6.888;2023-07-16T07:40:36;13.57;;;4.90;;
81960;SDS011;71462;50.650;6.888;2023-07-16T07:42:39;9.27;;;4.78;;
81960;SDS011;71462;50.650;6.888;2023-07-16T07:44:41;10.05;;;5.15;;
81960;SDS011;71462;50.650;6.888;2023-07-16T07:46:44;8.27;;;4.50;;
81960;SDS011;71462;50.650;6.888;2023-07-16T07:48:48;10.00;;;4.85;;
81960;SDS011;71462;50.650;6.888;2023-07-16T07:50:49;8.60;;;5.25;;
81960;SDS011;71462;50.650;6.888;2023-07-16T07:52:55;8.30;;;4.65;;
81960;SDS011;71462;50.650;6.888;2023-07-16T07:54:58;11.73;;;4.72;;
81960;SDS011;71462;50.650;6.888;2023-07-16T07:57:01;10.20;;;4.25;;
81960;SDS011;71462;50.650;6.888;2023-07-16T07:59:07;10.73;;;4.93;;
81960;SDS011;71462;50.650;6.888;2023-07-16T08:01:10;9.88;;;4.88;;
81960;SDS011;71462;50.650;6.888;2023-07-16T08:03:13;7.97;;;5.35;;
81960;SDS011;71462;50.650;6.888;2023-07-16T08:05:18;13.60;;;5.05;;
81960;SDS011;71462;50.650;6.888;2023-07-16T08:07:21;9.90;;;4.68;;
81960;SDS011;71462;50.650;6.888;2023-07-16T08:09:25;11.45;;;4.60;;
81960;SDS011;71462;50.650;6.888;2023-07-16T08:11:28;7.50;;;4.80;;
81960;SDS011;71462;50.650;6.888;2023-07-16T08:13:31;10.57;;;5.03;;
81960;SDS011;71462;50.650;6.888;2023-07-16T08:15:33;10.35;;;4.78;;
81960;SDS011;71462;50.650;6.888;2023-07-16T08:17:36;9.52;;;4.57;;
81960;SDS011;71462;50.650;6.888;2023-07-16T08:19:39;9.52;;;4.57;;
81960;SDS011;71462;50.650;6.888;2023-07-16T08:21:44;11.13;;;4.43;;
81960;SDS011;71462;50.650;6.888;2023-07-16T08:23:47;8.35;;;4.13;;
81960;SDS011;71462;50.650;6.888;2023-07-16T08:25:50;10.07;;;4.65;;
81960;SDS011;71462;50.650;6.888;2023-07-16T08:27:53;10.63;;;4.35;;
81960;SDS011;71462;50.650;6.888;2023-07-16T08:29:55;10.05;;;3.97;;
81960;SDS011;71462;50.650;6.888;2023-07-16T08:31:57;8.02;;;3.83;;
81960;SDS011;71462;50.650;6.888;2023-07-16T08:34:00;7.28;;;4.00;;
81960;SDS011;71462;50.650;6.888;2023-07-16T08:36:05;7.85;;;3.70;;
81960;SDS011;71462;50.650;6.888;2023-07-16T08:38:09;9.65;;;3.75;;
81960;SDS011;71462;50.650;6.888;2023-07-16T08:40:12;9.88;;;3.70;;
81960;SDS011;71462;50.650;6.888;2023-07-16T08:42:14;7.63;;;3.60;;
81960;SDS011;71462;50.650;6.888;2023-07-16T08:44:17;10.02;;;3.58;;
81960;SDS011;71462;50.650;6.888;2023-07-16T08:46:20;7.70;;;3.63;;
81960;SDS011;71462;50.650;6.888;2023-07-16T08:48:23;7.80;;;3.67;;
81960;SDS011;71462;50.650;6.888;2023-07-16T08:50:30;8.48;;;3.38;;
81960;SDS011;71462;50.650;6.888;2023-07-16T08:52:33;6.82;;;3.40;;
81960;SDS011;71462;50.650;6.888;2023-07-16T08:54:37;9.02;;;3.63;;
81960;SDS011;71462;50.650;6.888;2023-07-16T08:56:40;7.18;;;3.67;;
81960;SDS011;71462;50.650;6.888;2023-07-16T08:58:43;6.93;;;3.20;;
81960;SDS011;71462;50.650;6.888;2023-07-16T09:00:46;7.93;;;3.38;;
81960;SDS011;71462;50.650;6.888;2023-07-16T09:02:50;7.68;;;3.17;;
81960;SDS011;71462;50.650;6.888;2023-07-16T09:04:54;12.65;;;3.70;;
81960;SDS011;71462;50.650;6.888;2023-07-16T09:06:57;9.32;;;3.80;;
81960;SDS011;71462;50.650;6.888;2023-07-16T09:09:00;8.40;;;3.47;;
81960;SDS011;71462;50.650;6.888;2023-07-16T09:11:04;6.82;;;3.13;;
81960;SDS011;71462;50.650;6.888;2023-07-16T09:13:06;9.50;;;3.83;;
81960;SDS011;71462;50.650;6.888;2023-07-16T09:15:10;10.68;;;3.85;;
81960;SDS011;71462;50.650;6.888;2023-07-16T09:17:13;6.38;;;3.63;;
81960;SDS011;71462;50.650;6.888;2023-07-16T09:19:15;8.15;;;3.53;;
81960;SDS011;71462;50.650;6.888;2023-07-16T09:21:19;6.22;;;3.17;;
81960;SDS011;71462;50.650;6.888;2023-07-16T09:23:23;7.22;;;3.85;;
81960;SDS011;71462;50.650;6.888;2023-07-16T09:25:28;7.22;;;3.47;;
81960;SDS011;71462;50.650;6.888;2023-07-16T09:27:32;8.25;;;3.80;;
81960;SDS011;71462;50.650;6.888;2023-07-16T09:29:37;5.07;;;2.92;;
81960;SDS011;71462;50.650;6.888;2023-07-16T09:31:50;10.80;;;3.65;;
81960;SDS011;71462;50.650;6.888;2023-07-16T09:33:56;7.10;;;3.55;;
81960;SDS011;71462;50.650;6.888;2023-07-16T09:36:00;6.25;;;3.15;;
81960;SDS011;71462;50.650;6.888;2023-07-16T09:38:05;6.13;;;3.10;;
81960;SDS011;71462;50.650;6.888;2023-07-16T09:40:09;6.60;;;3.65;;
81960;SDS011;71462;50.650;6.888;2023-07-16T09:42:16;15.55;;;3.08;;
81960;SDS011;71462;50.650;6.888;2023-07-16T09:44:26;7.82;;;3.65;;
81960;SDS011;71462;50.650;6.888;2023-07-16T09:46:29;8.15;;;3.83;;
81960;SDS011;71462;50.650;6.888;2023-07-16T09:48:32;8.93;;;3.33;;
81960;SDS011;71462;50.650;6.888;2023-07-16T09:50:35;8.45;;;3.45;;
81960;SDS011;71462;50.650;6.888;2023-07-16T09:52:39;9.05;;;3.13;;
81960;SDS011;71462;50.650;6.888;2023-07-16T09:54:43;6.32;;;3.42;;
81960;SDS011;71462;50.650;6.888;2023-07-16T09:56:50;7.25;;;3.80;;
81960;SDS011;71462;50.650;6.888;2023-07-16T09:58:59;7.15;;;3.50;;
81960;SDS011;71462;50.650;6.888;2023-07-16T10:01:05;7.28;;;3.17;;
81960;SDS011;71462;50.650;6.888;2023-07-16T10:03:09;7.57;;;3.10;;
81960;SDS011;71462;50.650;6.888;2023-07-16T10:05:12;7.22;;;3.20;;
81960;SDS011;71462;50.650;6.888;2023-07-16T10:07:19;6.13;;;3.03;;
81960;SDS011;71462;50.650;6.888;2023-07-16T10:09:32;8.25;;;3.95;;
81960;SDS011;71462;50.650;6.888;2023-07-16T10:11:38;8.38;;;3.58;;
81960;SDS011;71462;50.650;6.888;2023-07-16T10:13:43;7.03;;;3.50;;
81960;SDS011;71462;50.650;6.888;2023-07-16T10:15:51;6.35;;;3.08;;
81960;SDS011;71462;50.650;6.888;2023-07-16T10:17:57;5.32;;;3.10;;
81960;SDS011;71462;50.650;6.888;2023-07-16T10:20:00;7.15;;;3.47;;
81960;SDS011;71462;50.650;6.888;2023-07-16T10:22:06;7.72;;;3.38;;
81960;SDS011;71462;50.650;6.888;2023-07-16T10:24:15;10.38;;;3.47;;
81960;SDS011;71462;50.650;6.888;2023-07-16T10:26:19;6.18;;;3.10;;
81960;SDS011;71462;50.650;6.888;2023-07-16T10:28:22;8.77;;;3.78;;
81960;SDS011;71462;50.650;6.888;2023-07-16T10:30:25;6.30;;;3.78;;
81960;SDS011;71462;50.650;6.888;2023-07-16T10:32:28;5.70;;;3.22;;
81960;SDS011;71462;50.650;6.888;2023-07-16T10:34:34;7.40;;;3.20;;
81960;SDS011;71462;50.650;6.888;2023-07-16T10:36:39;6.57;;;3.20;;
81960;SDS011;71462;50.650;6.888;2023-07-16T10:38:42;7.75;;;3.53;;
81960;SDS011;71462;50.650;6.888;2023-07-16T10:40:45;6.30;;;3.00;;
81960;SDS011;71462;50.650;6.888;2023-07-16T10:42:48;6.47;;;2.92;;
81960;SDS011;71462;50.650;6.888;2023-07-16T10:44:50;7.72;;;3.30;;
81960;SDS011;71462;50.650;6.888;2023-07-16T10:46:54;7.57;;;3.05;;
81960;SDS011;71462;50.650;6.888;2023-07-16T10:48:57;5.78;;;2.97;;
81960;SDS011;71462;50.650;6.888;2023-07-16T10:51:01;7.43;;;3.75;;
81960;SDS011;71462;50.650;6.888;2023-07-16T10:53:04;7.35;;;3.10;;
81960;SDS011;71462;50.650;6.888;2023-07-16T10:55:07;6.82;;;3.15;;
81960;SDS011;71462;50.650;6.888;2023-07-16T10:57:10;7.15;;;3.40;;
81960;SDS011;71462;50.650;6.888;2023-07-16T10:59:13;7.68;;;2.88;;
81960;SDS011;71462;50.650;6.888;2023-07-16T11:01:17;8.18;;;3.00;;
81960;SDS011;71462;50.650;6.888;2023-07-16T11:03:21;9.43;;;3.47;;
81960;SDS011;71462;50.650;6.888;2023-07-16T11:05:23;5.63;;;2.90;;
81960;SDS011;71462;50.650;6.888;2023-07-16T11:07:28;9.52;;;3.35;;
81960;SDS011;71462;50.650;6.888;2023-07-16T11:09:31;8.05;;;3.03;;
81960;SDS011;71462;50.650;6.888;2023-07-16T11:11:34;7.50;;;3.47;;
81960;SDS011;71462;50.650;6.888;2023-07-16T11:13:37;6.85;;;3.03;;
81960;SDS011;71462;50.650;6.888;2023-07-16T11:15:39;5.05;;;2.90;;
81960;SDS011;71462;50.650;6.888;2023-07-16T11:17:42;6.90;;;3.35;;
81960;SDS011;71462;50.650;6.888;2023-07-16T11:19:52;6.97;;;3.03;;
81960;SDS011;71462;50.650;6.888;2023-07-16T11:21:55;6.10;;;2.80;;
81960;SDS011;71462;50.650;6.888;2023-07-16T11:24:08;7.32;;;3.03;;
81960;SDS011;71462;50.650;6.888;2023-07-16T11:26:11;6.18;;;2.80;;
81960;SDS011;71462;50.650;6.888;2023-07-16T11:28:14;6.13;;;3.22;;
81960;SDS011;71462;50.650;6.888;2023-07-16T11:30:21;7.72;;;4.00;;
81960;SDS011;71462;50.650;6.888;2023-07-16T11:32:29;8.15;;;3.20;;
81960;SDS011;71462;50.650;6.888;2023-07-16T11:34:33;6.10;;;3.22;;
81960;SDS011;71462;50.650;6.888;2023-07-16T11:36:35;5.25;;;3.03;;
81960;SDS011;71462;50.650;6.888;2023-07-16T11:38:38;6.18;;;3.30;;
81960;SDS011;71462;50.650;6.888;2023-07-16T11:40:42;6.68;;;3.50;;
81960;SDS011;71462;50.650;6.888;2023-07-16T11:42:46;6.28;;;2.97;;
81960;SDS011;71462;50.650;6.888;2023-07-16T11:44:49;7.22;;;3.75;;
81960;SDS011;71462;50.650;6.888;2023-07-16T11:46:51;6.00;;;3.25;;
81960;SDS011;71462;50.650;6.888;2023-07-16T11:48:54;5.85;;;3.20;;
81960;SDS011;71462;50.650;6.888;2023-07-16T11:50:56;6.90;;;3.65;;
81960;SDS011;71462;50.650;6.888;2023-07-16T11:53:00;8.20;;;3.53;;
81960;SDS011;71462;50.650;6.888;2023-07-16T11:55:04;9.05;;;3.35;;
81960;SDS011;71462;50.650;6.888;2023-07-16T11:57:08;10.63;;;3.58;;
81960;SDS011;71462;50.650;6.888;2023-07-16T11:59:11;9.43;;;3.17;;
81960;SDS011;71462;50.650;6.888;2023-07-16T12:01:14;7.80;;;3.38;;
81960;SDS011;71462;50.650;6.888;2023-07-16T12:03:17;7.18;;;3.30;;
81960;SDS011;71462;50.650;6.888;2023-07-16T12:05:21;7.40;;;3.40;;
81960;SDS011;71462;50.650;6.888;2023-07-16T12:07:42;5.90;;;3.03;;
81960;SDS011;71462;50.650;6.888;2023-07-16T12:09:44;7.22;;;3.42;;
81960;SDS011;71462;50.650;6.888;2023-07-16T12:11:47;7.43;;;3.15;;
81960;SDS011;71462;50.650;6.888;2023-07-16T12:13:51;7.28;;;3.20;;
81960;SDS011;71462;50.650;6.888;2023-07-16T12:15:53;9.65;;;3.08;;
81960;SDS011;71462;50.650;6.888;2023-07-16T12:17:56;6.25;;;2.95;;
81960;SDS011;71462;50.650;6.888;2023-07-16T12:19:59;7.15;;;3.08;;
81960;SDS011;71462;50.650;6.888;2023-07-16T12:22:02;7.07;;;2.97;;
81960;SDS011;71462;50.650;6.888;2023-07-16T12:24:05;6.28;;;3.15;;